Time;durP1;ratioP1;P1;durP2;ratioP2;P2;SDS_P1;SDS_P2;PMS_P1;PMS_P2;Temp;Humidity;BMP_temperature;BMP_pressure;BME280_temperature;BME280_humidity;BME280_pressure;Samples;Min_cycle;Max_cycle;Signal;HPM_P1;HPM_P2
2021/01/24 00:02:00;;;;;;;1.42;0.90;;;20.90;49.20;;;;;;4964773;28;20050;-69
2021/01/24 00:04:25;;;;;;;1.45;0.93;;;20.90;49.20;;;;;;4961813;28;20050;-70
2021/01/24 00:06:51;;;;;;;1.30;0.80;;;21.00;49.20;;;;;;4955376;28;20202;-68
2021/01/24 00:09:17;;;;;;;1.13;0.80;;;20.90;49.20;;;;;;4964552;28;20469;-70
2021/01/24 00:11:42;;;;;;;1.30;0.80;;;20.90;49.20;;;;;;4963694;28;20022;-68
2021/01/24 00:14:08;;;;;;;1.55;0.85;;;20.90;49.20;;;;;;4958456;28;20508;-69
2021/01/24 00:16:33;;;;;;;1.25;0.80;;;20.90;49.30;;;;;;4956413;28;20101;-69
2021/01/24 00:18:59;;;;;;;2.25;0.95;;;20.90;49.20;;;;;;4962000;28;20169;-69
2021/01/24 00:21:24;;;;;;;1.60;0.90;;;20.90;49.30;;;;;;4963023;28;20035;-68
2021/01/24 00:23:50;;;;;;;1.02;0.70;;;20.90;49.30;;;;;;4961894;28;20130;-69
2021/01/24 00:26:16;;;;;;;1.60;1.00;;;20.90;49.30;;;;;;4954516;28;20556;-69
2021/01/24 00:28:41;;;;;;;2.20;0.70;;;20.90;49.80;;;;;;4971064;28;20038;-69
2021/01/24 00:31:07;;;;;;;1.42;0.80;;;20.90;49.30;;;;;;4955159;28;20101;-68
2021/01/24 00:33:32;;;;;;;1.17;0.80;;;20.90;49.30;;;;;;4954414;28;20031;-69
2021/01/24 00:35:58;;;;;;;0.95;0.70;;;20.80;49.30;;;;;;4955546;28;20772;-69
2021/01/24 00:38:24;;;;;;;1.63;0.88;;;20.80;49.30;;;;;;4959150;28;20027;-69
2021/01/24 00:40:50;;;;;;;1.73;0.80;;;20.90;49.30;;;;;;4963566;28;20530;-69
2021/01/24 00:43:15;;;;;;;0.90;0.80;;;20.80;49.30;;;;;;4956136;28;20049;-68
2021/01/24 00:45:42;;;;;;;1.48;0.70;;;20.80;49.30;;;;;;4963153;28;20046;-69
2021/01/24 00:48:08;;;;;;;2.10;0.80;;;20.80;49.30;;;;;;4965594;28;20023;-69
2021/01/24 00:50:33;;;;;;;1.50;0.90;;;20.80;49.20;;;;;;4948091;28;20360;-70
2021/01/24 00:52:59;;;;;;;2.22;0.80;;;20.80;49.20;;;;;;4947506;28;20035;-69
2021/01/24 00:55:25;;;;;;;1.17;0.75;;;20.80;49.20;;;;;;4952104;28;20504;-68
2021/01/24 00:57:50;;;;;;;1.23;0.80;;;20.80;49.10;;;;;;4973489;28;20256;-70
2021/01/24 01:00:16;;;;;;;1.40;0.80;;;20.80;49.10;;;;;;4965025;28;20919;-69
2021/01/24 01:02:42;;;;;;;0.93;0.70;;;20.80;49.10;;;;;;4966491;28;20010;-68
2021/01/24 01:05:08;;;;;;;1.05;0.80;;;20.80;49.10;;;;;;4967836;28;20056;-68
2021/01/24 01:07:34;;;;;;;1.45;0.80;;;20.80;49.10;;;;;;4965906;28;20043;-69
2021/01/24 01:10:00;;;;;;;1.48;0.80;;;20.70;49.00;;;;;;4968850;28;20027;-68
2021/01/24 01:12:26;;;;;;;1.58;0.98;;;20.80;49.10;;;;;;4967757;28;20124;-69
2021/01/24 01:14:51;;;;;;;1.65;0.80;;;20.70;49.00;;;;;;4968276;28;20023;-70
2021/01/24 01:17:17;;;;;;;1.30;0.85;;;20.70;49.00;;;;;;4965846;28;20549;-68
2021/01/24 01:19:42;;;;;;;1.40;0.80;;;20.70;49.00;;;;;;4965001;28;20026;-69
2021/01/24 01:22:08;;;;;;;1.75;0.90;;;20.70;49.00;;;;;;4962907;28;20050;-68
2021/01/24 01:24:34;;;;;;;1.52;0.90;;;20.70;49.00;;;;;;4948515;28;20126;-69
2021/01/24 01:27:00;;;;;;;1.45;0.88;;;20.70;49.00;;;;;;4948227;28;20535;-69
2021/01/24 01:29:25;;;;;;;1.13;0.70;;;20.70;49.00;;;;;;4956940;28;20038;-68
2021/01/24 01:31:51;;;;;;;1.60;0.80;;;20.70;49.00;;;;;;4947076;28;20513;-68
2021/01/24 01:34:16;;;;;;;0.65;0.60;;;20.70;49.00;;;;;;4962224;28;20042;-69
2021/01/24 01:36:42;;;;;;;1.50;1.00;;;20.70;49.00;;;;;;4958786;28;20035;-69
2021/01/24 01:39:08;;;;;;;2.10;0.93;;;20.70;49.00;;;;;;4967194;28;20090;-69
2021/01/24 01:41:34;;;;;;;1.17;0.80;;;20.70;49.00;;;;;;4966791;28;20022;-71
2021/01/24 01:44:02;;;;;;;1.13;0.70;;;20.70;49.00;;;;;;4952343;28;20388;-68
2021/01/24 01:46:29;;;;;;;2.33;0.85;;;20.60;48.90;;;;;;4959664;28;20042;-69
2021/01/24 01:48:55;;;;;;;1.13;0.82;;;20.60;48.90;;;;;;4967427;28;20038;-70
2021/01/24 01:51:21;;;;;;;1.15;0.70;;;20.60;48.90;;;;;;4966720;28;20065;-68
2021/01/24 01:53:47;;;;;;;1.70;0.80;;;20.60;48.90;;;;;;4967057;28;20075;-69
2021/01/24 01:56:14;;;;;;;1.38;0.85;;;20.60;48.80;;;;;;4964696;28;20038;-70
2021/01/24 01:58:41;;;;;;;1.27;0.80;;;20.60;48.90;;;;;;4966136;28;20382;-69
2021/01/24 02:01:14;;;;;;;1.20;0.95;;;20.60;48.80;;;;;;4957481;28;20122;-69
2021/01/24 02:04:14;;;;;;;1.35;0.85;;;20.60;48.80;;;;;;4967204;28;20035;-69
2021/01/24 02:06:58;;;;;;;1.00;0.70;;;20.60;48.90;;;;;;4947355;28;20038;-69
2021/01/24 02:09:47;;;;;;;1.70;1.00;;;20.60;48.90;;;;;;4952094;28;20049;-69
2021/01/24 02:12:35;;;;;;;2.10;0.70;;;20.60;48.90;;;;;;4966150;28;20109;-68
2021/01/24 02:15:04;;;;;;;0.73;0.70;;;20.50;48.80;;;;;;4959325;28;20031;-69
2021/01/24 02:17:35;;;;;;;1.38;0.80;;;20.50;48.80;;;;;;4960405;28;20093;-68
2021/01/24 02:20:19;;;;;;;1.10;0.80;;;20.50;48.80;;;;;;4952119;28;20037;-69
2021/01/24 02:22:47;;;;;;;1.95;0.90;;;20.60;48.90;;;;;;4964145;28;20054;-68
2021/01/24 02:25:17;;;;;;;0.90;0.70;;;20.50;48.80;;;;;;4964090;28;20034;-69
2021/01/24 02:27:49;;;;;;;1.27;0.90;;;20.50;48.80;;;;;;4966672;28;20389;-69
2021/01/24 02:30:14;;;;;;;1.48;0.98;;;20.50;48.80;;;;;;4963005;28;20070;-69
2021/01/24 02:32:41;;;;;;;1.20;0.82;;;20.50;48.80;;;;;;4962165;28;20112;-68
2021/01/24 02:35:07;;;;;;;1.27;0.80;;;20.50;48.80;;;;;;4955023;28;20039;-69
2021/01/24 02:37:34;;;;;;;1.30;0.85;;;20.50;48.80;;;;;;4945683;28;20106;-69
2021/01/24 02:40:01;;;;;;;1.33;0.88;;;20.50;48.80;;;;;;4948523;28;20395;-70
2021/01/24 02:42:29;;;;;;;2.30;1.00;;;20.50;48.80;;;;;;4958322;28;20030;-69
2021/01/24 02:44:55;;;;;;;0.88;0.77;;;20.50;48.80;;;;;;4964572;28;20438;-68
2021/01/24 02:47:21;;;;;;;0.98;0.80;;;20.40;48.80;;;;;;4943294;28;20027;-70
2021/01/24 02:49:48;;;;;;;1.02;0.70;;;20.40;48.80;;;;;;4949003;29;20035;-69
2021/01/24 02:52:14;;;;;;;0.95;0.75;;;20.50;48.80;;;;;;4957639;28;20058;-69
2021/01/24 02:54:40;;;;;;;1.25;0.75;;;20.40;48.80;;;;;;4959068;28;20037;-70
2021/01/24 02:57:06;;;;;;;1.55;0.82;;;20.40;48.80;;;;;;4981658;28;20035;-69
2021/01/24 02:59:33;;;;;;;0.95;0.70;;;20.40;48.80;;;;;;4959654;28;20045;-68
2021/01/24 03:01:59;;;;;;;1.00;0.80;;;20.40;48.80;;;;;;4969492;28;20035;-70
2021/01/24 03:04:25;;;;;;;1.00;0.70;;;20.40;48.80;;;;;;4969276;28;20027;-68
2021/01/24 03:06:51;;;;;;;1.05;0.80;;;20.40;48.80;;;;;;4957999;28;20571;-69
2021/01/24 03:09:17;;;;;;;1.45;0.90;;;20.40;48.80;;;;;;4957319;28;20118;-69
2021/01/24 03:11:46;;;;;;;1.23;0.80;;;20.40;48.70;;;;;;4969872;28;20035;-69
2021/01/24 03:14:19;;;;;;;0.60;0.60;;;20.40;48.80;;;;;;4970349;28;20070;-70
2021/01/24 03:16:48;;;;;;;0.90;0.73;;;20.40;49.30;;;;;;4960094;28;20062;-68
2021/01/24 03:19:18;;;;;;;0.80;0.68;;;20.40;48.90;;;;;;4968899;28;20030;-68
2021/01/24 03:21:45;;;;;;;1.08;0.73;;;20.40;48.80;;;;;;4968693;28;20390;-69
2021/01/24 03:24:12;;;;;;;0.82;0.75;;;20.40;48.70;;;;;;4960931;28;20038;-70
2021/01/24 03:26:38;;;;;;;2.22;0.80;;;20.40;48.80;;;;;;4950694;28;20023;-68
2021/01/24 03:29:04;;;;;;;1.00;0.80;;;20.30;48.70;;;;;;4956448;28;20503;-68
2021/01/24 03:31:31;;;;;;;1.27;0.70;;;20.30;48.80;;;;;;4956365;28;20046;-69
2021/01/24 03:33:58;;;;;;;0.90;0.70;;;20.30;48.80;;;;;;4963261;28;20470;-68
2021/01/24 03:36:23;;;;;;;0.88;0.70;;;20.30;48.80;;;;;;4961418;28;20081;-68
2021/01/24 03:38:49;;;;;;;1.35;0.80;;;20.30;48.80;;;;;;4968260;28;20561;-69
2021/01/24 03:41:14;;;;;;;1.38;0.70;;;20.30;48.80;;;;;;4969470;28;20030;-70
2021/01/24 03:43:40;;;;;;;1.50;0.80;;;20.30;48.80;;;;;;4969634;28;20500;-69
2021/01/24 03:46:06;;;;;;;1.13;0.70;;;20.30;48.80;;;;;;4963710;28;20082;-71
2021/01/24 03:48:32;;;;;;;0.98;0.80;;;20.30;48.80;;;;;;4966827;28;20042;-69
2021/01/24 03:50:58;;;;;;;1.02;0.80;;;20.30;48.80;;;;;;4958805;28;20026;-68
2021/01/24 03:53:24;;;;;;;0.98;0.70;;;20.30;48.80;;;;;;4950341;28;20034;-69
2021/01/24 03:55:49;;;;;;;0.80;0.63;;;20.30;49.30;;;;;;4957751;28;20332;-69
2021/01/24 03:58:15;;;;;;;1.52;0.77;;;20.20;48.80;;;;;;4966314;28;20061;-71
2021/01/24 04:00:41;;;;;;;0.90;0.60;;;20.20;48.80;;;;;;4964969;28;20122;-69
2021/01/24 04:03:06;;;;;;;1.20;0.80;;;20.20;48.80;;;;;;4969508;28;20038;-69
2021/01/24 04:05:32;;;;;;;0.60;0.60;;;20.20;48.80;;;;;;4957104;28;20545;-69
2021/01/24 04:07:57;;;;;;;1.10;0.80;;;20.20;48.80;;;;;;4956299;28;20022;-68
2021/01/24 04:10:23;;;;;;;0.50;0.50;;;20.20;48.80;;;;;;4961008;28;20036;-68
2021/01/24 04:12:49;;;;;;;1.17;0.70;;;20.20;48.80;;;;;;4969033;28;20564;-69
2021/01/24 04:15:16;;;;;;;0.80;0.80;;;20.20;48.80;;;;;;4964283;28;20027;-69
2021/01/24 04:17:43;;;;;;;0.68;0.60;;;20.20;48.90;;;;;;4948694;28;20217;-68
2021/01/24 04:20:09;;;;;;;1.17;0.77;;;20.20;48.90;;;;;;4965038;28;20031;-70
2021/01/24 04:22:35;;;;;;;1.27;0.70;;;20.20;48.90;;;;;;4966843;28;20410;-69
2021/01/24 04:25:00;;;;;;;1.05;0.65;;;20.20;48.90;;;;;;4965021;28;20027;-70
2021/01/24 04:27:26;;;;;;;0.82;0.65;;;20.20;48.90;;;;;;4966492;28;20133;-69
2021/01/24 04:29:52;;;;;;;0.93;0.60;;;20.20;48.90;;;;;;4969996;28;20051;-69
2021/01/24 04:32:17;;;;;;;0.70;0.65;;;20.20;48.90;;;;;;4965502;28;20129;-69
2021/01/24 04:34:43;;;;;;;0.93;0.70;;;20.10;48.80;;;;;;4964007;28;20398;-68
2021/01/24 04:37:09;;;;;;;0.70;0.70;;;20.20;48.90;;;;;;4946350;28;20031;-70
2021/01/24 04:39:34;;;;;;;0.93;0.70;;;20.20;48.90;;;;;;4962883;28;20035;-69
2021/01/24 04:42:00;;;;;;;0.80;0.63;;;20.20;48.90;;;;;;4957552;28;20446;-69
2021/01/24 04:44:26;;;;;;;0.98;0.70;;;20.20;48.90;;;;;;4957892;28;20031;-70
2021/01/24 04:46:53;;;;;;;0.70;0.70;;;20.10;48.90;;;;;;4948316;28;20461;-68
2021/01/24 04:49:19;;;;;;;0.63;0.60;;;20.20;48.90;;;;;;4950015;28;20050;-69
2021/01/24 04:51:44;;;;;;;0.80;0.63;;;20.20;48.90;;;;;;4948024;28;20038;-68
2021/01/24 04:54:11;;;;;;;0.88;0.70;;;20.20;48.90;;;;;;4957539;28;20129;-69
2021/01/24 04:56:38;;;;;;;0.77;0.70;;;20.10;48.90;;;;;;4957306;28;20047;-69
2021/01/24 04:59:04;;;;;;;0.70;0.55;;;20.10;48.90;;;;;;4958564;28;20117;-69
2021/01/24 05:01:32;;;;;;;1.00;0.70;;;20.20;48.90;;;;;;4957496;28;20039;-69
2021/01/24 05:03:59;;;;;;;0.95;0.73;;;20.10;48.90;;;;;;4949467;28;20406;-70
2021/01/24 05:06:26;;;;;;;0.77;0.60;;;20.10;48.90;;;;;;4950996;28;20031;-68
2021/01/24 05:08:52;;;;;;;0.95;0.68;;;20.10;48.90;;;;;;4949226;28;20056;-68
2021/01/24 05:11:20;;;;;;;1.13;0.70;;;20.10;48.90;;;;;;4948313;28;20030;-69
2021/01/24 05:13:45;;;;;;;0.80;0.63;;;20.10;48.90;;;;;;4948443;28;20046;-69
2021/01/24 05:16:12;;;;;;;0.73;0.68;;;20.10;48.80;;;;;;4961584;28;20051;-68
2021/01/24 05:18:37;;;;;;;0.63;0.57;;;20.10;48.90;;;;;;4968617;28;20150;-69
2021/01/24 05:21:04;;;;;;;0.88;0.60;;;20.10;48.90;;;;;;4965933;28;20134;-69
2021/01/24 05:23:30;;;;;;;0.88;0.60;;;20.10;48.90;;;;;;4961267;28;20031;-70
2021/01/24 05:25:56;;;;;;;0.75;0.60;;;20.10;48.90;;;;;;4956727;28;20599;-69
2021/01/24 05:28:24;;;;;;;1.40;0.60;;;20.10;48.90;;;;;;4955373;28;20015;-68
2021/01/24 05:30:50;;;;;;;0.90;0.70;;;20.10;48.90;;;;;;4960852;28;20046;-69
2021/01/24 05:33:17;;;;;;;0.98;0.70;;;20.10;48.90;;;;;;4954094;28;20027;-70
2021/01/24 05:35:51;;;;;;;0.60;0.60;;;20.10;48.80;;;;;;4953896;28;20039;-70
2021/01/24 05:38:28;;;;;;;0.70;0.70;;;20.10;48.90;;;;;;4946654;29;20027;-68
2021/01/24 05:40:55;;;;;;;1.17;0.80;;;20.10;48.90;;;;;;4949301;28;20042;-70
2021/01/24 05:43:24;;;;;;;0.77;0.70;;;20.10;48.90;;;;;;4949024;28;20015;-68
2021/01/24 05:45:51;;;;;;;0.50;0.50;;;20.10;48.90;;;;;;4956201;28;20435;-69
2021/01/24 05:48:17;;;;;;;0.60;0.60;;;20.10;48.90;;;;;;4950217;28;20260;-68
2021/01/24 05:50:45;;;;;;;0.75;0.50;;;20.10;48.90;;;;;;4952930;28;20078;-69
2021/01/24 05:53:13;;;;;;;0.85;0.60;;;20.10;48.90;;;;;;4948160;28;20019;-69
2021/01/24 05:55:39;;;;;;;0.90;0.80;;;20.10;48.90;;;;;;4955128;28;20118;-69
2021/01/24 05:58:24;;;;;;;0.75;0.50;;;20.10;48.80;;;;;;4960264;28;20526;-68
2021/01/24 06:00:53;;;;;;;0.98;0.60;;;20.10;48.90;;;;;;4960343;28;20163;-69
2021/01/24 06:03:20;;;;;;;0.60;0.60;;;20.10;48.90;;;;;;4967146;28;20026;-69
2021/01/24 06:05:46;;;;;;;1.10;0.70;;;20.00;48.80;;;;;;4954384;28;20130;-68
2021/01/24 06:08:14;;;;;;;0.63;0.60;;;20.10;48.80;;;;;;4961552;28;20028;-69
2021/01/24 06:10:40;;;;;;;0.50;0.50;;;20.10;48.80;;;;;;4967964;28;20416;-69
2021/01/24 06:13:11;;;;;;;0.93;0.65;;;20.00;48.80;;;;;;4968047;28;20034;-69
2021/01/24 06:15:40;;;;;;;0.50;0.50;;;20.10;48.80;;;;;;4964641;28;20045;-68
2021/01/24 06:18:14;;;;;;;0.60;0.50;;;20.00;48.80;;;;;;4967000;28;20031;-68
2021/01/24 06:20:45;;;;;;;0.82;0.60;;;20.10;48.80;;;;;;4966394;28;20560;-69
2021/01/24 06:23:19;;;;;;;0.70;0.63;;;20.10;48.90;;;;;;4965455;28;20081;-69
2021/01/24 06:25:47;;;;;;;0.70;0.60;;;20.00;48.80;;;;;;4964488;28;20038;-69
2021/01/24 06:28:30;;;;;;;0.45;0.45;;;20.00;48.80;;;;;;4962789;28;20042;-69
2021/01/24 06:30:56;;;;;;;1.40;0.57;;;20.00;49.30;;;;;;4954519;28;20366;-69
2021/01/24 06:33:23;;;;;;;0.70;0.57;;;20.00;48.70;;;;;;4963361;28;20027;-69
2021/01/24 06:35:59;;;;;;;0.60;0.60;;;20.00;48.80;;;;;;4955987;28;20075;-70
2021/01/24 06:38:36;;;;;;;0.63;0.50;;;20.00;48.70;;;;;;4954440;28;20472;-69
2021/01/24 06:42:00;;;;;;;0.50;0.50;;;20.00;48.70;;;;;;4966723;28;20033;-69
2021/01/24 06:44:41;;;;;;;0.90;0.57;;;20.00;48.80;;;;;;4989529;28;20459;-69
2021/01/24 06:47:40;;;;;;;0.70;0.60;;;20.00;48.70;;;;;;4968013;28;20054;-69
2021/01/24 06:50:34;;;;;;;0.40;0.40;;;20.00;48.70;;;;;;4966514;28;20047;-69
2021/01/24 06:53:06;;;;;;;0.50;0.50;;;20.00;48.70;;;;;;4947237;28;20059;-69
2021/01/24 06:55:32;;;;;;;0.60;0.50;;;20.00;48.70;;;;;;4954089;28;20142;-69
2021/01/24 06:58:18;;;;;;;0.60;0.60;;;20.00;48.70;;;;;;4965095;28;20030;-69
2021/01/24 07:00:44;;;;;;;0.70;0.50;;;20.00;48.70;;;;;;4960441;28;20150;-69
2021/01/24 07:03:19;;;;;;;0.70;0.50;;;20.00;48.70;;;;;;4956914;28;20106;-69
2021/01/24 07:05:46;;;;;;;0.60;0.60;;;20.00;48.70;;;;;;4949667;28;20126;-69
2021/01/24 07:08:29;;;;;;;0.80;0.70;;;20.00;48.70;;;;;;4962028;28;20443;-70
2021/01/24 07:10:55;;;;;;;0.57;0.57;;;20.00;48.70;;;;;;4945799;29;20028;-69
2021/01/24 07:13:26;;;;;;;0.73;0.50;;;20.00;48.70;;;;;;4948750;28;20023;-69
2021/01/24 07:16:04;;;;;;;0.50;0.50;;;20.00;48.70;;;;;;4960819;28;20451;-69
2021/01/24 07:18:41;;;;;;;0.60;0.50;;;20.00;48.70;;;;;;4959676;28;20593;-69
2021/01/24 07:21:07;;;;;;;0.50;0.50;;;19.90;48.70;;;;;;4956543;28;20351;-69
2021/01/24 07:23:34;;;;;;;0.60;0.50;;;20.00;48.70;;;;;;4963877;28;20042;-69
2021/01/24 07:26:02;;;;;;;0.60;0.55;;;20.00;48.70;;;;;;4956209;28;20045;-69
2021/01/24 07:28:29;;;;;;;0.80;0.60;;;19.90;48.70;;;;;;4964532;28;20394;-70
2021/01/24 07:30:59;;;;;;;0.57;0.57;;;20.00;48.70;;;;;;4963925;28;20354;-70
2021/01/24 07:33:27;;;;;;;0.55;0.50;;;19.90;48.70;;;;;;4964853;28;20301;-70
2021/01/24 07:35:56;;;;;;;0.52;0.40;;;19.90;48.70;;;;;;4964262;28;20053;-70
2021/01/24 07:38:21;;;;;;;0.50;0.50;;;20.00;48.70;;;;;;4965014;28;20050;-69
2021/01/24 07:40:52;;;;;;;0.50;0.50;;;19.90;48.70;;;;;;4966352;28;20031;-69
2021/01/24 07:43:17;;;;;;;0.50;0.50;;;19.90;48.70;;;;;;4962737;28;20403;-68
2021/01/24 07:45:45;;;;;;;0.60;0.50;;;19.90;48.60;;;;;;4965552;28;20105;-67
2021/01/24 07:48:12;;;;;;;0.80;0.60;;;19.90;48.70;;;;;;4962954;28;20034;-68
2021/01/24 07:50:37;;;;;;;0.55;0.47;;;19.90;48.60;;;;;;4970178;28;20045;-67
2021/01/24 07:53:04;;;;;;;0.63;0.63;;;19.90;48.60;;;;;;4969557;28;20398;-68
2021/01/24 07:55:29;;;;;;;0.85;0.60;;;19.90;48.50;;;;;;4963953;28;20038;-68
2021/01/24 07:57:55;;;;;;;0.57;0.57;;;20.00;48.40;;;;;;4962071;28;20039;-68
2021/01/24 08:00:21;;;;;;;0.77;0.60;;;20.00;48.50;;;;;;4968976;28;20051;-68
2021/01/24 08:02:47;;;;;;;1.52;0.60;;;20.00;48.50;;;;;;4969391;28;20078;-68
2021/01/24 08:05:13;;;;;;;0.90;0.50;;;19.90;48.50;;;;;;4963696;28;20450;-68
2021/01/24 08:07:39;;;;;;;0.52;0.40;;;20.00;48.50;;;;;;4960725;28;20042;-69
2021/01/24 08:10:05;;;;;;;0.60;0.60;;;19.90;48.50;;;;;;4967435;28;20061;-68
2021/01/24 08:12:31;;;;;;;0.63;0.50;;;19.90;48.50;;;;;;4954630;28;20773;-69
2021/01/24 08:14:57;;;;;;;0.80;0.50;;;19.90;48.50;;;;;;4966396;28;20045;-68
2021/01/24 08:17:24;;;;;;;0.65;0.55;;;19.90;48.50;;;;;;4961553;28;20099;-70
2021/01/24 08:19:50;;;;;;;0.40;0.40;;;19.90;48.50;;;;;;4969032;28;20085;-69
2021/01/24 08:22:16;;;;;;;1.00;0.52;;;19.90;48.50;;;;;;4965552;28;20342;-70
2021/01/24 08:24:43;;;;;;;0.70;0.60;;;19.90;48.50;;;;;;4963685;28;20194;-68
2021/01/24 08:27:09;;;;;;;0.88;0.60;;;19.90;48.50;;;;;;4956192;28;20031;-69
2021/01/24 08:29:35;;;;;;;0.32;0.32;;;19.90;48.50;;;;;;4962093;28;20138;-69
2021/01/24 08:32:03;;;;;;;0.70;0.50;;;19.90;48.50;;;;;;4963421;28;20436;-69
2021/01/24 08:34:29;;;;;;;0.65;0.60;;;19.90;48.50;;;;;;4965526;28;20030;-68
2021/01/24 08:36:55;;;;;;;0.40;0.40;;;19.90;48.50;;;;;;4951416;28;20031;-68
2021/01/24 08:39:24;;;;;;;1.13;0.50;;;19.90;48.50;;;;;;4957986;28;20039;-68
2021/01/24 08:41:52;;;;;;;0.50;0.50;;;19.90;48.50;;;;;;4959952;28;20034;-68
2021/01/24 08:44:18;;;;;;;1.27;0.47;;;19.90;48.50;;;;;;4959684;28;20062;-69
2021/01/24 08:46:52;;;;;;;0.70;0.50;;;19.90;48.50;;;;;;4964994;28;20303;-69
2021/01/24 08:49:27;;;;;;;0.77;0.55;;;19.90;48.50;;;;;;4951129;28;20038;-68
2021/01/24 08:51:58;;;;;;;0.80;0.60;;;19.90;48.50;;;;;;4967819;28;20027;-69
2021/01/24 08:54:29;;;;;;;0.85;0.50;;;19.90;48.50;;;;;;4967230;28;20057;-68
2021/01/24 08:57:10;;;;;;;0.85;0.50;;;19.90;48.50;;;;;;4956792;28;20382;-68
2021/01/24 08:59:36;;;;;;;0.63;0.57;;;19.90;48.50;;;;;;4969163;28;20357;-68
2021/01/24 09:02:03;;;;;;;0.80;0.52;;;19.90;48.50;;;;;;4958348;28;20046;-68
2021/01/24 09:04:34;;;;;;;1.73;0.65;;;19.90;48.50;;;;;;4953846;28;20035;-70
2021/01/24 09:07:01;;;;;;;2.05;0.70;;;19.90;48.50;;;;;;4965349;28;20043;-67
2021/01/24 09:09:30;;;;;;;1.05;0.57;;;19.90;48.50;;;;;;4963806;28;20123;-68
2021/01/24 09:11:56;;;;;;;;;;;19.90;48.50;;;;;;4963866;28;20022;-70
2021/01/24 09:14:23;;;;;;;1.17;0.70;;;19.90;48.50;;;;;;4961557;28;20060;-68
2021/01/24 09:17:00;;;;;;;1.48;0.70;;;19.90;48.50;;;;;;4944533;28;20031;-67
2021/01/24 09:19:26;;;;;;;1.38;0.75;;;20.00;48.70;;;;;;4944938;28;20035;-68
2021/01/24 09:21:52;;;;;;;0.98;0.70;;;20.00;48.70;;;;;;4956462;28;20042;-68
2021/01/24 09:24:18;;;;;;;2.67;0.95;;;20.10;48.70;;;;;;4959447;28;20466;-69
2021/01/24 09:26:45;;;;;;;2.17;0.90;;;20.10;48.70;;;;;;4946945;28;20043;-70
2021/01/24 09:29:11;;;;;;;1.08;0.57;;;20.20;48.70;;;;;;4958326;28;20126;-69
2021/01/24 09:31:37;;;;;;;1.77;0.88;;;20.20;48.80;;;;;;4962423;28;20532;-68
2021/01/24 09:34:03;;;;;;;1.58;0.93;;;20.20;48.70;;;;;;4956547;28;20035;-67
2021/01/24 09:36:28;;;;;;;1.33;0.70;;;20.30;48.80;;;;;;4960156;28;20548;-67
2021/01/24 09:38:54;;;;;;;2.13;0.70;;;20.30;48.70;;;;;;4957823;28;20053;-68
2021/01/24 09:41:19;;;;;;;1.38;0.80;;;20.40;48.90;;;;;;4972032;28;20034;-68
2021/01/24 09:43:45;;;;;;;2.30;1.00;;;20.40;48.80;;;;;;4960945;28;20118;-67
2021/01/24 09:46:11;;;;;;;2.70;0.95;;;20.50;48.80;;;;;;4948988;28;20055;-67
2021/01/24 09:48:36;;;;;;;1.85;0.90;;;20.50;48.80;;;;;;4956742;28;20513;-69
2021/01/24 09:51:02;;;;;;;1.65;0.90;;;20.50;48.80;;;;;;4962768;28;20035;-68
2021/01/24 09:53:28;;;;;;;4.45;1.00;;;20.50;48.90;;;;;;4963420;28;20521;-68
2021/01/24 09:55:53;;;;;;;1.73;0.90;;;20.50;49.10;;;;;;4955709;28;20046;-67
2021/01/24 09:58:19;;;;;;;2.78;1.10;;;20.50;49.10;;;;;;4949507;28;20050;-67
2021/01/24 10:00:44;;;;;;;2.78;1.30;;;20.50;49.20;;;;;;4953245;28;20366;-68
2021/01/24 10:03:10;;;;;;;2.08;1.10;;;20.50;49.30;;;;;;4947828;28;20049;-68
2021/01/24 10:05:36;;;;;;;1.73;1.15;;;20.50;49.30;;;;;;4952411;28;20051;-68
2021/01/24 10:08:01;;;;;;;2.55;1.40;;;20.50;49.30;;;;;;4945651;28;20446;-69
2021/01/24 10:10:27;;;;;;;3.25;1.08;;;20.50;49.40;;;;;;4965358;28;20183;-70
2021/01/24 10:12:52;;;;;;;2.70;1.20;;;20.50;49.40;;;;;;4968044;28;20136;-70
2021/01/24 10:15:18;;;;;;;2.00;1.02;;;20.60;49.30;;;;;;4963433;28;20039;-70
2021/01/24 10:17:44;;;;;;;2.47;1.30;;;20.60;49.40;;;;;;4966202;28;20046;-70
2021/01/24 10:20:10;;;;;;;2.10;1.05;;;20.60;49.30;;;;;;4967123;28;20042;-69
2021/01/24 10:22:36;;;;;;;2.67;1.05;;;20.60;49.20;;;;;;4959859;28;20039;-69
2021/01/24 10:25:02;;;;;;;2.17;1.13;;;20.70;49.30;;;;;;4960368;28;20023;-69
2021/01/24 10:27:28;;;;;;;3.42;1.35;;;20.70;49.30;;;;;;4955122;28;20069;-69
2021/01/24 10:29:53;;;;;;;2.53;1.20;;;20.70;49.40;;;;;;4955501;28;20048;-70
2021/01/24 10:32:19;;;;;;;4.22;1.30;;;20.70;49.40;;;;;;4958528;28;20520;-70
2021/01/24 10:34:44;;;;;;;1.67;1.10;;;20.70;49.40;;;;;;4960592;28;20034;-70
2021/01/24 10:37:10;;;;;;;2.60;1.10;;;20.60;49.40;;;;;;4962735;28;20111;-69
2021/01/24 10:39:36;;;;;;;2.50;1.30;;;20.70;49.50;;;;;;4958815;28;20367;-70
2021/01/24 10:42:01;;;;;;;3.40;1.30;;;20.70;49.60;;;;;;4964794;28;20064;-70
2021/01/24 10:44:27;;;;;;;2.72;1.20;;;20.70;49.60;;;;;;4958547;28;20117;-70
2021/01/24 10:46:53;;;;;;;2.50;1.10;;;20.70;49.60;;;;;;4948657;28;20063;-70
2021/01/24 10:49:18;;;;;;;2.70;1.20;;;20.70;49.60;;;;;;4958018;28;20110;-71
2021/01/24 10:51:44;;;;;;;2.55;1.20;;;20.70;49.60;;;;;;4955440;28;20105;-70
2021/01/24 10:54:09;;;;;;;3.60;1.70;;;20.60;49.60;;;;;;4956158;28;20037;-70
2021/01/24 10:56:35;;;;;;;3.08;1.10;;;20.70;49.60;;;;;;4960858;28;20337;-70
2021/01/24 10:59:01;;;;;;;1.58;1.10;;;20.70;49.80;;;;;;4964113;28;20058;-71
2021/01/24 11:01:26;;;;;;;2.13;1.08;;;20.70;49.80;;;;;;4951249;28;20565;-70
2021/01/24 11:03:52;;;;;;;2.03;0.93;;;20.80;49.80;;;;;;4958621;28;20485;-70
2021/01/24 11:06:18;;;;;;;2.67;1.10;;;20.80;49.90;;;;;;4957162;28;20026;-69
2021/01/24 11:08:43;;;;;;;2.08;1.20;;;20.80;49.90;;;;;;4962750;28;20524;-70
2021/01/24 11:11:09;;;;;;;2.63;1.20;;;20.80;49.90;;;;;;4969696;28;20031;-69
2021/01/24 11:13:34;;;;;;;2.50;1.30;;;20.80;49.90;;;;;;4967855;28;20482;-70
2021/01/24 11:16:00;;;;;;;3.08;1.20;;;20.80;49.90;;;;;;4965395;28;20035;-70
2021/01/24 11:18:25;;;;;;;5.07;1.40;;;20.80;49.90;;;;;;4961519;28;20030;-70
2021/01/24 11:20:51;;;;;;;4.47;1.20;;;20.80;50.00;;;;;;4959927;28;20549;-70
2021/01/24 11:23:17;;;;;;;2.30;1.17;;;20.80;50.00;;;;;;4969962;28;20035;-69
2021/01/24 11:25:42;;;;;;;2.83;1.30;;;20.80;50.10;;;;;;4967741;28;20052;-70
2021/01/24 11:28:08;;;;;;;2.15;1.10;;;20.80;50.10;;;;;;4965695;28;20125;-70
2021/01/24 11:30:33;;;;;;;3.20;1.42;;;20.80;50.10;;;;;;4961039;28;20036;-70
2021/01/24 11:32:59;;;;;;;2.92;0.95;;;20.80;50.10;;;;;;4965379;28;20066;-70
2021/01/24 11:35:25;;;;;;;2.78;1.20;;;20.80;50.90;;;;;;4967430;28;20474;-71
2021/01/24 11:37:50;;;;;;;3.05;1.10;;;20.80;51.00;;;;;;4966720;28;20023;-70
2021/01/24 11:40:16;;;;;;;2.13;1.08;;;20.90;50.90;;;;;;4972146;28;20489;-69
2021/01/24 11:42:42;;;;;;;2.58;1.13;;;20.90;51.00;;;;;;4959872;28;20042;-70
2021/01/24 11:45:08;;;;;;;1.75;0.93;;;20.90;51.60;;;;;;4968637;28;20609;-70
2021/01/24 11:47:35;;;;;;;1.63;0.93;;;21.00;51.70;;;;;;4964068;28;20030;-70
2021/01/24 11:50:01;;;;;;;2.35;1.10;;;21.00;51.60;;;;;;4970340;28;20399;-69
2021/01/24 11:52:27;;;;;;;2.00;1.10;;;21.00;51.60;;;;;;4965510;28;20509;-70
2021/01/24 11:54:53;;;;;;;4.47;1.17;;;21.10;51.80;;;;;;4962299;28;20046;-71
2021/01/24 11:57:18;;;;;;;1.88;1.15;;;21.10;52.00;;;;;;4960209;28;20406;-70
2021/01/24 11:59:44;;;;;;;2.67;1.10;;;21.10;52.10;;;;;;4948972;28;20031;-69
2021/01/24 12:02:10;;;;;;;3.75;1.00;;;21.10;52.20;;;;;;4956244;28;20034;-69
2021/01/24 12:04:35;;;;;;;3.50;1.30;;;21.10;52.30;;;;;;4955807;28;20449;-68
2021/01/24 12:07:01;;;;;;;2.63;1.20;;;21.10;52.40;;;;;;4947446;28;20023;-69
2021/01/24 12:09:27;;;;;;;3.58;1.20;;;21.10;52.50;;;;;;4946424;28;20741;-68
2021/01/24 12:11:52;;;;;;;2.35;1.05;;;21.20;52.60;;;;;;4965818;28;20046;-69
2021/01/24 12:14:18;;;;;;;1.52;0.88;;;21.20;52.60;;;;;;4955314;28;20035;-69
2021/01/24 12:16:44;;;;;;;2.67;1.13;;;21.20;52.50;;;;;;4962467;28;20454;-69
2021/01/24 12:19:09;;;;;;;2.60;1.40;;;21.20;52.60;;;;;;4962935;28;20109;-69
2021/01/24 12:21:35;;;;;;;2.72;1.30;;;21.20;52.50;;;;;;4948959;28;20031;-69
2021/01/24 12:24:00;;;;;;;3.28;1.10;;;21.30;52.60;;;;;;4947931;28;20565;-69
2021/01/24 12:26:26;;;;;;;2.30;1.17;;;21.20;52.40;;;;;;4951640;28;20034;-69
2021/01/24 12:28:52;;;;;;;2.15;1.10;;;21.30;52.50;;;;;;4961551;28;20829;-68
2021/01/24 12:31:17;;;;;;;2.28;1.00;;;21.30;52.30;;;;;;4951570;28;20126;-69
2021/01/24 12:33:43;;;;;;;3.08;1.13;;;21.20;52.20;;;;;;4952393;28;20166;-69
2021/01/24 12:36:09;;;;;;;1.17;0.85;;;21.20;52.20;;;;;;4958635;28;20035;-69
2021/01/24 12:38:34;;;;;;;1.38;0.90;;;21.30;52.10;;;;;;4962933;28;20110;-69
2021/01/24 12:41:00;;;;;;;2.03;0.98;;;21.30;52.10;;;;;;4953706;28;20037;-68
2021/01/24 12:43:27;;;;;;;2.47;1.00;;;21.30;52.00;;;;;;4960547;28;20047;-68
2021/01/24 12:45:53;;;;;;;2.38;0.80;;;21.20;51.90;;;;;;4954268;28;20038;-69
2021/01/24 12:48:18;;;;;;;2.03;1.00;;;21.30;51.90;;;;;;4958090;28;20348;-68
2021/01/24 12:50:44;;;;;;;1.30;0.80;;;21.20;51.80;;;;;;4963702;28;20047;-69